Terminal Aerodrome Forecast
Issued by NWS

Current Version | Previous Version | Text Only | Print | Product List | Glossary Off
Versions: 1 2 3 4 5 6 7 8 9 10 11 12 13 14 15 16 17 18 19 20 21 22 23

000
FTUS41 KRLX 291100
TAFCKB
TAF
KCKB 291128Z 2912/3012 00000KT P6SM BKN040
      TEMPO 2914/2916 BKN025
     FM291700 28006KT P6SM SCT050
     FM300500 00000KT 6SM BR SCT150
     FM300800 00000KT 3SM BR SCT100
     FM301100 00000KT 5SM BR BKN070=

USA.gov is the U.S. government's official web portal to all federal, state and local government web resources and services.